sensor_id;sensor_type;location;lat;lon;timestamp;P1;durP1;ratioP1;P2;durP2;ratioP2
51034;SDS011;37062;52.546;13.230;2023-02-02T00:01:38;14.00;;;3.08;;
51034;SDS011;37062;52.546;13.230;2023-02-02T00:04:07;13.43;;;2.85;;
51034;SDS011;37062;52.546;13.230;2023-02-02T00:06:38;13.90;;;2.77;;
51034;SDS011;37062;52.546;13.230;2023-02-02T00:09:08;17.80;;;3.15;;
51034;SDS011;37062;52.546;13.230;2023-02-02T00:11:37;14.50;;;4.07;;
51034;SDS011;37062;52.546;13.230;2023-02-02T00:14:05;21.00;;;5.30;;
51034;SDS011;37062;52.546;13.230;2023-02-02T00:16:38;10.60;;;3.20;;
51034;SDS011;37062;52.546;13.230;2023-02-02T00:19:09;14.70;;;4.30;;
51034;SDS011;37062;52.546;13.230;2023-02-02T00:21:39;11.95;;;2.85;;
51034;SDS011;37062;52.546;13.230;2023-02-02T00:24:08;29.70;;;8.60;;
51034;SDS011;37062;52.546;13.230;2023-02-02T00:26:38;23.33;;;3.67;;
51034;SDS011;37062;52.546;13.230;2023-02-02T00:29:10;10.00;;;3.03;;
51034;SDS011;37062;52.546;13.230;2023-02-02T00:31:41;16.53;;;2.97;;
51034;SDS011;37062;52.546;13.230;2023-02-02T00:34:11;21.25;;;3.70;;
51034;SDS011;37062;52.546;13.230;2023-02-02T00:36:40;16.93;;;3.20;;
51034;SDS011;37062;52.546;13.230;2023-02-02T00:39:09;25.97;;;7.53;;
51034;SDS011;37062;52.546;13.230;2023-02-02T00:41:40;36.95;;;9.80;;
51034;SDS011;37062;52.546;13.230;2023-02-02T00:44:08;12.10;;;2.80;;
51034;SDS011;37062;52.546;13.230;2023-02-02T00:46:54;18.27;;;4.37;;
51034;SDS011;37062;52.546;13.230;2023-02-02T00:49:24;14.73;;;3.23;;
51034;SDS011;37062;52.546;13.230;2023-02-02T00:51:52;13.73;;;3.20;;
51034;SDS011;37062;52.546;13.230;2023-02-02T00:54:20;12.65;;;3.08;;
51034;SDS011;37062;52.546;13.230;2023-02-02T00:56:48;16.55;;;3.95;;
51034;SDS011;37062;52.546;13.230;2023-02-02T00:59:17;18.07;;;2.60;;
51034;SDS011;37062;52.546;13.230;2023-02-02T01:01:45;14.50;;;2.92;;
51034;SDS011;37062;52.546;13.230;2023-02-02T01:04:13;12.13;;;2.70;;
51034;SDS011;37062;52.546;13.230;2023-02-02T01:06:42;15.37;;;2.77;;
51034;SDS011;37062;52.546;13.230;2023-02-02T01:09:11;17.60;;;3.50;;
51034;SDS011;37062;52.546;13.230;2023-02-02T01:11:39;17.75;;;3.08;;
51034;SDS011;37062;52.546;13.230;2023-02-02T01:14:07;19.53;;;3.60;;
51034;SDS011;37062;52.546;13.230;2023-02-02T01:16:35;17.57;;;3.37;;
51034;SDS011;37062;52.546;13.230;2023-02-02T01:19:03;17.37;;;3.00;;
51034;SDS011;37062;52.546;13.230;2023-02-02T01:21:32;13.53;;;2.60;;
51034;SDS011;37062;52.546;13.230;2023-02-02T01:24:01;18.50;;;3.63;;
51034;SDS011;37062;52.546;13.230;2023-02-02T01:26:30;17.08;;;3.22;;
51034;SDS011;37062;52.546;13.230;2023-02-02T01:28:58;17.13;;;2.95;;
51034;SDS011;37062;52.546;13.230;2023-02-02T01:31:26;14.43;;;2.80;;
51034;SDS011;37062;52.546;13.230;2023-02-02T01:33:54;15.63;;;3.13;;
51034;SDS011;37062;52.546;13.230;2023-02-02T01:36:23;13.40;;;3.35;;
51034;SDS011;37062;52.546;13.230;2023-02-02T01:38:51;14.47;;;3.10;;
51034;SDS011;37062;52.546;13.230;2023-02-02T01:41:21;16.50;;;3.20;;
51034;SDS011;37062;52.546;13.230;2023-02-02T01:43:52;13.63;;;3.00;;
51034;SDS011;37062;52.546;13.230;2023-02-02T01:46:25;19.33;;;2.93;;
51034;SDS011;37062;52.546;13.230;2023-02-02T01:48:59;13.70;;;3.13;;
51034;SDS011;37062;52.546;13.230;2023-02-02T01:51:31;14.80;;;2.78;;
51034;SDS011;37062;52.546;13.230;2023-02-02T01:54:07;15.23;;;2.80;;
51034;SDS011;37062;52.546;13.230;2023-02-02T01:56:41;13.13;;;2.70;;
51034;SDS011;37062;52.546;13.230;2023-02-02T01:59:12;13.90;;;2.72;;
51034;SDS011;37062;52.546;13.230;2023-02-02T02:01:42;16.55;;;2.88;;
51034;SDS011;37062;52.546;13.230;2023-02-02T02:04:12;15.90;;;3.00;;
51034;SDS011;37062;52.546;13.230;2023-02-02T02:06:43;14.40;;;2.77;;
51034;SDS011;37062;52.546;13.230;2023-02-02T02:09:11;11.52;;;2.75;;
51034;SDS011;37062;52.546;13.230;2023-02-02T02:11:41;16.00;;;3.00;;
51034;SDS011;37062;52.546;13.230;2023-02-02T02:14:10;12.27;;;2.80;;
51034;SDS011;37062;52.546;13.230;2023-02-02T02:17:06;13.15;;;2.60;;
51034;SDS011;37062;52.546;13.230;2023-02-02T02:23:16;10.30;;;2.60;;
51034;SDS011;37062;52.546;13.230;2023-02-02T02:29:30;12.32;;;3.08;;
51034;SDS011;37062;52.546;13.230;2023-02-02T02:32:25;12.40;;;2.60;;
51034;SDS011;37062;52.546;13.230;2023-02-02T02:34:59;11.40;;;2.33;;
51034;SDS011;37062;52.546;13.230;2023-02-02T02:37:36;12.88;;;3.35;;
51034;SDS011;37062;52.546;13.230;2023-02-02T02:40:13;13.65;;;2.38;;
51034;SDS011;37062;52.546;13.230;2023-02-02T02:42:48;13.10;;;2.60;;
51034;SDS011;37062;52.546;13.230;2023-02-02T02:45:21;14.73;;;2.95;;
51034;SDS011;37062;52.546;13.230;2023-02-02T02:47:53;8.20;;;2.28;;
51034;SDS011;37062;52.546;13.230;2023-02-02T02:50:22;11.85;;;2.67;;
51034;SDS011;37062;52.546;13.230;2023-02-02T02:52:54;12.57;;;2.85;;
51034;SDS011;37062;52.546;13.230;2023-02-02T02:55:27;9.18;;;2.17;;
51034;SDS011;37062;52.546;13.230;2023-02-02T02:58:05;12.27;;;2.97;;
51034;SDS011;37062;52.546;13.230;2023-02-02T03:00:46;10.00;;;2.38;;
51034;SDS011;37062;52.546;13.230;2023-02-02T03:03:26;11.55;;;2.50;;
51034;SDS011;37062;52.546;13.230;2023-02-02T03:06:05;9.25;;;2.10;;
51034;SDS011;37062;52.546;13.230;2023-02-02T03:08:38;11.85;;;2.22;;
51034;SDS011;37062;52.546;13.230;2023-02-02T03:11:10;13.13;;;2.45;;
51034;SDS011;37062;52.546;13.230;2023-02-02T03:13:40;11.57;;;2.63;;
51034;SDS011;37062;52.546;13.230;2023-02-02T03:16:09;8.73;;;2.20;;
51034;SDS011;37062;52.546;13.230;2023-02-02T03:18:39;11.15;;;2.30;;
51034;SDS011;37062;52.546;13.230;2023-02-02T03:21:09;7.57;;;2.03;;
51034;SDS011;37062;52.546;13.230;2023-02-02T03:23:37;10.00;;;1.90;;
51034;SDS011;37062;52.546;13.230;2023-02-02T03:26:06;10.40;;;2.10;;
51034;SDS011;37062;52.546;13.230;2023-02-02T03:28:34;8.10;;;1.77;;
51034;SDS011;37062;52.546;13.230;2023-02-02T03:31:03;8.48;;;1.98;;
51034;SDS011;37062;52.546;13.230;2023-02-02T03:33:32;7.97;;;1.73;;
51034;SDS011;37062;52.546;13.230;2023-02-02T03:36:04;8.25;;;2.15;;
51034;SDS011;37062;52.546;13.230;2023-02-02T03:38:33;10.48;;;2.25;;
51034;SDS011;37062;52.546;13.230;2023-02-02T03:41:01;10.05;;;2.17;;
51034;SDS011;37062;52.546;13.230;2023-02-02T03:43:30;10.73;;;2.15;;
51034;SDS011;37062;52.546;13.230;2023-02-02T03:45:59;11.93;;;2.28;;
51034;SDS011;37062;52.546;13.230;2023-02-02T03:48:30;11.80;;;2.15;;
51034;SDS011;37062;52.546;13.230;2023-02-02T03:50:58;10.38;;;2.40;;
51034;SDS011;37062;52.546;13.230;2023-02-02T03:53:28;12.63;;;1.80;;
51034;SDS011;37062;52.546;13.230;2023-02-02T03:55:56;8.68;;;1.95;;
51034;SDS011;37062;52.546;13.230;2023-02-02T03:58:24;7.05;;;1.80;;
51034;SDS011;37062;52.546;13.230;2023-02-02T04:00:52;6.47;;;1.60;;
51034;SDS011;37062;52.546;13.230;2023-02-02T04:03:21;7.13;;;1.87;;
51034;SDS011;37062;52.546;13.230;2023-02-02T04:05:49;10.13;;;1.98;;
51034;SDS011;37062;52.546;13.230;2023-02-02T04:08:17;7.07;;;1.70;;
51034;SDS011;37062;52.546;13.230;2023-02-02T04:10:46;10.65;;;1.95;;
51034;SDS011;37062;52.546;13.230;2023-02-02T04:13:14;8.50;;;1.40;;
51034;SDS011;37062;52.546;13.230;2023-02-02T04:15:43;8.27;;;1.90;;
51034;SDS011;37062;52.546;13.230;2023-02-02T04:18:11;13.20;;;1.92;;
51034;SDS011;37062;52.546;13.230;2023-02-02T04:20:39;10.77;;;1.83;;
51034;SDS011;37062;52.546;13.230;2023-02-02T04:23:07;9.48;;;2.10;;
51034;SDS011;37062;52.546;13.230;2023-02-02T04:25:35;7.53;;;1.77;;
51034;SDS011;37062;52.546;13.230;2023-02-02T04:28:05;7.53;;;1.90;;
51034;SDS011;37062;52.546;13.230;2023-02-02T04:30:33;9.73;;;2.05;;
51034;SDS011;37062;52.546;13.230;2023-02-02T04:33:01;11.05;;;2.30;;
51034;SDS011;37062;52.546;13.230;2023-02-02T04:35:29;9.60;;;1.80;;
51034;SDS011;37062;52.546;13.230;2023-02-02T04:37:57;11.15;;;2.00;;
51034;SDS011;37062;52.546;13.230;2023-02-02T04:40:25;8.18;;;1.75;;
51034;SDS011;37062;52.546;13.230;2023-02-02T04:42:55;10.07;;;2.03;;
51034;SDS011;37062;52.546;13.230;2023-02-02T04:45:25;6.90;;;1.88;;
51034;SDS011;37062;52.546;13.230;2023-02-02T04:47:53;8.15;;;2.00;;
51034;SDS011;37062;52.546;13.230;2023-02-02T04:50:21;11.00;;;2.17;;
51034;SDS011;37062;52.546;13.230;2023-02-02T04:52:50;9.32;;;2.13;;
51034;SDS011;37062;52.546;13.230;2023-02-02T04:55:18;5.75;;;1.75;;
51034;SDS011;37062;52.546;13.230;2023-02-02T04:57:46;6.30;;;1.65;;
51034;SDS011;37062;52.546;13.230;2023-02-02T05:00:15;7.40;;;1.73;;
51034;SDS011;37062;52.546;13.230;2023-02-02T05:02:45;8.43;;;1.67;;
51034;SDS011;37062;52.546;13.230;2023-02-02T05:05:13;10.27;;;2.03;;
51034;SDS011;37062;52.546;13.230;2023-02-02T05:07:41;6.50;;;1.92;;
51034;SDS011;37062;52.546;13.230;2023-02-02T05:10:10;12.88;;;2.00;;
51034;SDS011;37062;52.546;13.230;2023-02-02T05:12:39;9.45;;;2.10;;
51034;SDS011;37062;52.546;13.230;2023-02-02T05:15:07;9.07;;;2.00;;
51034;SDS011;37062;52.546;13.230;2023-02-02T05:17:36;4.80;;;1.55;;
51034;SDS011;37062;52.546;13.230;2023-02-02T05:20:06;9.23;;;1.63;;
51034;SDS011;37062;52.546;13.230;2023-02-02T05:22:35;13.40;;;2.17;;
51034;SDS011;37062;52.546;13.230;2023-02-02T05:25:03;9.13;;;2.70;;
51034;SDS011;37062;52.546;13.230;2023-02-02T05:27:32;7.80;;;1.80;;
51034;SDS011;37062;52.546;13.230;2023-02-02T05:30:01;10.23;;;2.00;;
51034;SDS011;37062;52.546;13.230;2023-02-02T05:32:30;8.32;;;1.70;;
51034;SDS011;37062;52.546;13.230;2023-02-02T05:34:58;16.38;;;2.05;;
51034;SDS011;37062;52.546;13.230;2023-02-02T05:37:27;10.73;;;2.07;;
51034;SDS011;37062;52.546;13.230;2023-02-02T05:39:55;9.97;;;2.03;;
51034;SDS011;37062;52.546;13.230;2023-02-02T05:42:23;6.63;;;1.80;;
51034;SDS011;37062;52.546;13.230;2023-02-02T05:44:52;10.55;;;1.80;;
51034;SDS011;37062;52.546;13.230;2023-02-02T05:47:20;9.73;;;1.55;;
51034;SDS011;37062;52.546;13.230;2023-02-02T05:49:48;8.43;;;1.88;;
51034;SDS011;37062;52.546;13.230;2023-02-02T05:52:17;8.52;;;2.42;;
51034;SDS011;37062;52.546;13.230;2023-02-02T05:54:48;10.48;;;2.08;;
51034;SDS011;37062;52.546;13.230;2023-02-02T05:57:16;10.10;;;1.80;;
51034;SDS011;37062;52.546;13.230;2023-02-02T05:59:44;12.93;;;2.30;;
51034;SDS011;37062;52.546;13.230;2023-02-02T06:02:13;7.97;;;2.03;;
51034;SDS011;37062;52.546;13.230;2023-02-02T06:04:41;10.13;;;2.07;;
51034;SDS011;37062;52.546;13.230;2023-02-02T06:07:09;10.38;;;2.10;;
51034;SDS011;37062;52.546;13.230;2023-02-02T06:09:37;8.35;;;1.85;;
51034;SDS011;37062;52.546;13.230;2023-02-02T06:12:07;10.98;;;1.65;;
51034;SDS011;37062;52.546;13.230;2023-02-02T06:14:35;8.85;;;2.03;;
51034;SDS011;37062;52.546;13.230;2023-02-02T06:17:03;10.83;;;1.70;;
51034;SDS011;37062;52.546;13.230;2023-02-02T06:19:32;9.85;;;2.20;;
51034;SDS011;37062;52.546;13.230;2023-02-02T06:22:00;11.15;;;1.85;;
51034;SDS011;37062;52.546;13.230;2023-02-02T06:24:28;9.07;;;1.77;;
51034;SDS011;37062;52.546;13.230;2023-02-02T06:26:56;11.15;;;2.17;;
51034;SDS011;37062;52.546;13.230;2023-02-02T06:29:25;10.75;;;1.90;;
51034;SDS011;37062;52.546;13.230;2023-02-02T06:31:54;8.80;;;2.13;;
51034;SDS011;37062;52.546;13.230;2023-02-02T06:34:22;7.85;;;2.15;;
51034;SDS011;37062;52.546;13.230;2023-02-02T06:36:50;8.45;;;1.80;;
51034;SDS011;37062;52.546;13.230;2023-02-02T06:39:18;9.07;;;1.90;;
51034;SDS011;37062;52.546;13.230;2023-02-02T06:41:46;6.77;;;1.47;;
51034;SDS011;37062;52.546;13.230;2023-02-02T06:44:17;10.25;;;1.88;;
51034;SDS011;37062;52.546;13.230;2023-02-02T06:46:47;7.20;;;1.80;;
51034;SDS011;37062;52.546;13.230;2023-02-02T06:49:15;8.77;;;1.80;;
51034;SDS011;37062;52.546;13.230;2023-02-02T06:51:45;10.63;;;1.80;;
51034;SDS011;37062;52.546;13.230;2023-02-02T06:54:13;12.18;;;1.95;;
51034;SDS011;37062;52.546;13.230;2023-02-02T06:56:42;8.25;;;1.95;;
51034;SDS011;37062;52.546;13.230;2023-02-02T06:59:10;6.35;;;1.70;;
51034;SDS011;37062;52.546;13.230;2023-02-02T07:01:38;9.77;;;1.70;;
51034;SDS011;37062;52.546;13.230;2023-02-02T07:04:08;7.00;;;1.85;;
51034;SDS011;37062;52.546;13.230;2023-02-02T07:06:36;5.93;;;1.90;;
51034;SDS011;37062;52.546;13.230;2023-02-02T07:09:05;8.55;;;2.22;;
51034;SDS011;37062;52.546;13.230;2023-02-02T07:11:36;7.60;;;1.50;;
51034;SDS011;37062;52.546;13.230;2023-02-02T07:14:08;8.00;;;1.90;;
51034;SDS011;37062;52.546;13.230;2023-02-02T07:16:36;6.93;;;1.50;;
51034;SDS011;37062;52.546;13.230;2023-02-02T07:19:04;6.35;;;1.60;;
51034;SDS011;37062;52.546;13.230;2023-02-02T07:21:34;7.38;;;1.85;;
51034;SDS011;37062;52.546;13.230;2023-02-02T07:24:03;8.68;;;1.75;;
51034;SDS011;37062;52.546;13.230;2023-02-02T07:26:32;8.25;;;1.83;;
51034;SDS011;37062;52.546;13.230;2023-02-02T07:29:01;5.80;;;1.63;;
51034;SDS011;37062;52.546;13.230;2023-02-02T07:31:30;11.90;;;2.40;;
51034;SDS011;37062;52.546;13.230;2023-02-02T07:34:01;13.02;;;2.17;;
51034;SDS011;37062;52.546;13.230;2023-02-02T07:36:30;12.23;;;1.95;;
51034;SDS011;37062;52.546;13.230;2023-02-02T07:38:59;10.60;;;2.30;;
51034;SDS011;37062;52.546;13.230;2023-02-02T07:41:30;6.03;;;1.88;;
51034;SDS011;37062;52.546;13.230;2023-02-02T07:44:00;10.35;;;2.50;;
51034;SDS011;37062;52.546;13.230;2023-02-02T07:46:28;11.18;;;1.80;;
51034;SDS011;37062;52.546;13.230;2023-02-02T07:48:56;8.73;;;2.20;;
51034;SDS011;37062;52.546;13.230;2023-02-02T07:51:25;15.10;;;2.63;;
51034;SDS011;37062;52.546;13.230;2023-02-02T07:53:53;11.38;;;2.20;;
51034;SDS011;37062;52.546;13.230;2023-02-02T07:56:26;9.25;;;2.03;;
51034;SDS011;37062;52.546;13.230;2023-02-02T07:58:54;12.48;;;2.15;;
51034;SDS011;37062;52.546;13.230;2023-02-02T08:01:23;11.45;;;2.60;;
51034;SDS011;37062;52.546;13.230;2023-02-02T08:03:54;11.13;;;2.30;;
51034;SDS011;37062;52.546;13.230;2023-02-02T08:06:25;9.70;;;2.42;;
51034;SDS011;37062;52.546;13.230;2023-02-02T08:08:55;11.98;;;2.30;;
51034;SDS011;37062;52.546;13.230;2023-02-02T08:11:25;7.97;;;2.70;;
51034;SDS011;37062;52.546;13.230;2023-02-02T08:13:54;9.63;;;2.35;;
51034;SDS011;37062;52.546;13.230;2023-02-02T08:16:24;10.68;;;2.30;;
51034;SDS011;37062;52.546;13.230;2023-02-02T08:18:54;9.63;;;2.70;;
51034;SDS011;37062;52.546;13.230;2023-02-02T08:21:22;9.88;;;2.10;;
51034;SDS011;37062;52.546;13.230;2023-02-02T08:23:51;11.90;;;2.47;;
51034;SDS011;37062;52.546;13.230;2023-02-02T08:26:20;10.93;;;2.08;;
51034;SDS011;37062;52.546;13.230;2023-02-02T08:28:53;12.25;;;2.08;;
51034;SDS011;37062;52.546;13.230;2023-02-02T08:31:23;7.88;;;2.03;;
51034;SDS011;37062;52.546;13.230;2023-02-02T08:33:53;8.77;;;1.88;;
51034;SDS011;37062;52.546;13.230;2023-02-02T08:36:24;6.50;;;1.70;;
51034;SDS011;37062;52.546;13.230;2023-02-02T08:38:54;7.63;;;1.90;;
51034;SDS011;37062;52.546;13.230;2023-02-02T08:41:22;6.88;;;1.90;;
51034;SDS011;37062;52.546;13.230;2023-02-02T08:43:52;8.40;;;1.98;;
51034;SDS011;37062;52.546;13.230;2023-02-02T08:46:20;10.93;;;1.73;;
51034;SDS011;37062;52.546;13.230;2023-02-02T08:48:49;8.18;;;1.92;;
51034;SDS011;37062;52.546;13.230;2023-02-02T08:51:17;10.35;;;2.03;;
51034;SDS011;37062;52.546;13.230;2023-02-02T08:53:46;6.97;;;2.25;;
51034;SDS011;37062;52.546;13.230;2023-02-02T08:56:15;21.75;;;7.45;;
51034;SDS011;37062;52.546;13.230;2023-02-02T08:58:44;8.50;;;2.15;;
51034;SDS011;37062;52.546;13.230;2023-02-02T09:01:16;11.18;;;3.65;;
51034;SDS011;37062;52.546;13.230;2023-02-02T09:03:46;8.88;;;2.40;;
51034;SDS011;37062;52.546;13.230;2023-02-02T09:06:14;5.70;;;1.98;;
51034;SDS011;37062;52.546;13.230;2023-02-02T09:08:44;8.98;;;1.92;;
51034;SDS011;37062;52.546;13.230;2023-02-02T09:11:14;3.88;;;1.40;;
51034;SDS011;37062;52.546;13.230;2023-02-02T09:13:44;5.07;;;1.83;;
51034;SDS011;37062;52.546;13.230;2023-02-02T09:16:14;7.22;;;1.85;;
51034;SDS011;37062;52.546;13.230;2023-02-02T09:18:44;5.55;;;1.50;;
51034;SDS011;37062;52.546;13.230;2023-02-02T09:21:13;7.97;;;1.70;;
51034;SDS011;37062;52.546;13.230;2023-02-02T09:23:43;9.55;;;1.70;;
51034;SDS011;37062;52.546;13.230;2023-02-02T09:26:13;6.07;;;1.55;;
51034;SDS011;37062;52.546;13.230;2023-02-02T09:28:42;11.65;;;3.75;;
51034;SDS011;37062;52.546;13.230;2023-02-02T09:31:12;6.40;;;2.42;;
51034;SDS011;37062;52.546;13.230;2023-02-02T09:33:42;6.72;;;1.85;;
51034;SDS011;37062;52.546;13.230;2023-02-02T09:36:11;8.75;;;2.40;;
51034;SDS011;37062;52.546;13.230;2023-02-02T09:38:40;3.85;;;1.35;;
51034;SDS011;37062;52.546;13.230;2023-02-02T09:41:16;10.70;;;2.13;;
51034;SDS011;37062;52.546;13.230;2023-02-02T09:44:01;9.88;;;1.83;;
51034;SDS011;37062;52.546;13.230;2023-02-02T09:46:43;8.95;;;1.88;;
51034;SDS011;37062;52.546;13.230;2023-02-02T09:49:20;9.02;;;1.63;;
51034;SDS011;37062;52.546;13.230;2023-02-02T09:51:53;8.80;;;1.95;;
51034;SDS011;37062;52.546;13.230;2023-02-02T09:54:26;10.00;;;1.90;;
51034;SDS011;37062;52.546;13.230;2023-02-02T09:57:01;8.27;;;1.70;;
51034;SDS011;37062;52.546;13.230;2023-02-02T09:59:38;6.35;;;1.65;;
51034;SDS011;37062;52.546;13.230;2023-02-02T10:02:12;11.10;;;3.35;;
51034;SDS011;37062;52.546;13.230;2023-02-02T10:04:45;8.27;;;1.88;;
51034;SDS011;37062;52.546;13.230;2023-02-02T10:07:18;8.00;;;2.08;;
51034;SDS011;37062;52.546;13.230;2023-02-02T10:09:53;8.20;;;2.80;;
51034;SDS011;37062;52.546;13.230;2023-02-02T10:12:29;34.63;;;10.95;;
51034;SDS011;37062;52.546;13.230;2023-02-02T10:15:03;7.60;;;1.95;;
51034;SDS011;37062;52.546;13.230;2023-02-02T10:17:39;7.60;;;1.80;;
51034;SDS011;37062;52.546;13.230;2023-02-02T10:20:16;7.25;;;1.63;;
51034;SDS011;37062;52.546;13.230;2023-02-02T10:22:58;9.52;;;1.90;;
51034;SDS011;37062;52.546;13.230;2023-02-02T10:25:33;7.35;;;1.75;;
51034;SDS011;37062;52.546;13.230;2023-02-02T10:28:03;12.82;;;2.50;;
51034;SDS011;37062;52.546;13.230;2023-02-02T10:30:41;8.75;;;1.50;;
51034;SDS011;37062;52.546;13.230;2023-02-02T10:33:14;9.02;;;2.00;;
51034;SDS011;37062;52.546;13.230;2023-02-02T10:35:54;6.65;;;1.42;;
51034;SDS011;37062;52.546;13.230;2023-02-02T10:38:33;6.75;;;1.48;;
51034;SDS011;37062;52.546;13.230;2023-02-02T10:41:09;7.95;;;1.60;;
51034;SDS011;37062;52.546;13.230;2023-02-02T10:44:00;11.75;;;2.15;;
51034;SDS011;37062;52.546;13.230;2023-02-02T10:46:38;9.13;;;1.83;;
51034;SDS011;37062;52.546;13.230;2023-02-02T10:49:20;7.15;;;1.60;;
51034;SDS011;37062;52.546;13.230;2023-02-02T10:51:56;6.47;;;1.45;;
51034;SDS011;37062;52.546;13.230;2023-02-02T10:57:29;4.97;;;1.33;;
51034;SDS011;37062;52.546;13.230;2023-02-02T11:00:07;6.47;;;1.95;;
51034;SDS011;37062;52.546;13.230;2023-02-02T11:02:48;5.40;;;1.50;;
51034;SDS011;37062;52.546;13.230;2023-02-02T11:05:19;5.07;;;1.60;;
51034;SDS011;37062;52.546;13.230;2023-02-02T11:08:12;3.28;;;1.33;;
51034;SDS011;37062;52.546;13.230;2023-02-02T11:10:42;8.93;;;1.80;;
51034;SDS011;37062;52.546;13.230;2023-02-02T11:13:23;6.00;;;1.30;;
51034;SDS011;37062;52.546;13.230;2023-02-02T11:22:00;5.97;;;2.10;;
51034;SDS011;37062;52.546;13.230;2023-02-02T11:24:32;5.38;;;1.35;;
51034;SDS011;37062;52.546;13.230;2023-02-02T11:27:11;9.02;;;1.65;;
51034;SDS011;37062;52.546;13.230;2023-02-02T11:29:42;8.30;;;1.80;;
51034;SDS011;37062;52.546;13.230;2023-02-02T11:35:20;8.57;;;1.48;;
51034;SDS011;37062;52.546;13.230;2023-02-02T11:37:56;8.32;;;1.75;;
51034;SDS011;37062;52.546;13.230;2023-02-02T11:40:30;4.28;;;1.45;;
51034;SDS011;37062;52.546;13.230;2023-02-02T11:43:01;6.88;;;1.55;;
51034;SDS011;37062;52.546;13.230;2023-02-02T11:45:33;6.32;;;1.60;;
51034;SDS011;37062;52.546;13.230;2023-02-02T11:48:05;6.13;;;1.67;;
51034;SDS011;37062;52.546;13.230;2023-02-02T11:50:43;7.15;;;1.50;;
51034;SDS011;37062;52.546;13.230;2023-02-02T11:53:23;7.80;;;1.60;;
51034;SDS011;37062;52.546;13.230;2023-02-02T11:55:54;6.43;;;1.58;;
51034;SDS011;37062;52.546;13.230;2023-02-02T11:58:25;7.55;;;1.70;;
51034;SDS011;37062;52.546;13.230;2023-02-02T12:00:56;7.10;;;1.70;;
51034;SDS011;37062;52.546;13.230;2023-02-02T12:03:30;7.63;;;1.23;;
51034;SDS011;37062;52.546;13.230;2023-02-02T12:05:59;4.22;;;1.52;;
51034;SDS011;37062;52.546;13.230;2023-02-02T12:08:44;10.27;;;1.85;;
51034;SDS011;37062;52.546;13.230;2023-02-02T12:11:18;5.40;;;1.38;;
51034;SDS011;37062;52.546;13.230;2023-02-02T12:13:58;4.20;;;1.30;;
51034;SDS011;37062;52.546;13.230;2023-02-02T12:16:38;7.07;;;1.67;;
51034;SDS011;37062;52.546;13.230;2023-02-02T12:19:23;7.75;;;1.65;;
51034;SDS011;37062;52.546;13.230;2023-02-02T12:22:18;10.75;;;2.83;;
51034;SDS011;37062;52.546;13.230;2023-02-02T12:24:59;6.43;;;1.60;;
51034;SDS011;37062;52.546;13.230;2023-02-02T12:27:38;8.75;;;3.17;;
51034;SDS011;37062;52.546;13.230;2023-02-02T12:30:17;4.10;;;1.33;;
51034;SDS011;37062;52.546;13.230;2023-02-02T12:32:59;7.68;;;2.83;;
51034;SDS011;37062;52.546;13.230;2023-02-02T12:39:01;8.13;;;2.70;;
51034;SDS011;37062;52.546;13.230;2023-02-02T12:41:38;4.13;;;1.38;;
51034;SDS011;37062;52.546;13.230;2023-02-02T12:44:33;6.20;;;1.35;;
51034;SDS011;37062;52.546;13.230;2023-02-02T12:47:16;6.07;;;1.30;;
51034;SDS011;37062;52.546;13.230;2023-02-02T12:50:02;6.72;;;1.63;;
51034;SDS011;37062;52.546;13.230;2023-02-02T12:52:55;4.30;;;1.45;;
51034;SDS011;37062;52.546;13.230;2023-02-02T12:55:41;6.25;;;1.90;;
51034;SDS011;37062;52.546;13.230;2023-02-02T12:58:17;4.88;;;1.60;;
51034;SDS011;37062;52.546;13.230;2023-02-02T13:01:03;7.40;;;1.40;;
51034;SDS011;37062;52.546;13.230;2023-02-02T13:03:42;5.35;;;1.45;;
51034;SDS011;37062;52.546;13.230;2023-02-02T13:06:33;6.07;;;1.40;;
51034;SDS011;37062;52.546;13.230;2023-02-02T13:09:20;4.93;;;1.10;;
51034;SDS011;37062;52.546;13.230;2023-02-02T13:11:56;6.25;;;1.63;;
51034;SDS011;37062;52.546;13.230;2023-02-02T13:14:29;5.18;;;1.38;;
51034;SDS011;37062;52.546;13.230;2023-02-02T13:17:06;7.47;;;1.45;;
51034;SDS011;37062;52.546;13.230;2023-02-02T13:19:39;7.85;;;1.30;;
51034;SDS011;37062;52.546;13.230;2023-02-02T13:22:11;4.60;;;1.17;;
51034;SDS011;37062;52.546;13.230;2023-02-02T13:24:42;5.32;;;1.45;;
51034;SDS011;37062;52.546;13.230;2023-02-02T13:27:14;4.65;;;1.75;;
51034;SDS011;37062;52.546;13.230;2023-02-02T13:29:46;3.88;;;1.27;;
51034;SDS011;37062;52.546;13.230;2023-02-02T13:32:22;5.68;;;1.65;;
51034;SDS011;37062;52.546;13.230;2023-02-02T13:34:54;6.93;;;1.50;;
51034;SDS011;37062;52.546;13.230;2023-02-02T13:37:27;6.50;;;1.08;;
51034;SDS011;37062;52.546;13.230;2023-02-02T13:40:03;3.38;;;1.23;;
51034;SDS011;37062;52.546;13.230;2023-02-02T13:42:42;5.68;;;1.25;;
51034;SDS011;37062;52.546;13.230;2023-02-02T13:45:16;7.00;;;1.40;;
51034;SDS011;37062;52.546;13.230;2023-02-02T13:48:06;4.45;;;1.30;;
51034;SDS011;37062;52.546;13.230;2023-02-02T13:50:42;6.15;;;1.38;;
51034;SDS011;37062;52.546;13.230;2023-02-02T13:53:24;5.82;;;1.65;;
51034;SDS011;37062;52.546;13.230;2023-02-02T13:56:16;4.60;;;1.42;;
51034;SDS011;37062;52.546;13.230;2023-02-02T13:59:13;3.13;;;1.27;;
51034;SDS011;37062;52.546;13.230;2023-02-02T14:01:56;4.65;;;1.40;;
51034;SDS011;37062;52.546;13.230;2023-02-02T14:04:27;6.35;;;1.60;;
51034;SDS011;37062;52.546;13.230;2023-02-02T14:06:57;6.07;;;1.70;;
51034;SDS011;37062;52.546;13.230;2023-02-02T14:09:33;4.30;;;1.30;;
51034;SDS011;37062;52.546;13.230;2023-02-02T14:12:04;6.53;;;1.48;;
51034;SDS011;37062;52.546;13.230;2023-02-02T14:14:34;4.70;;;1.23;;
51034;SDS011;37062;52.546;13.230;2023-02-02T14:17:05;4.07;;;1.33;;
51034;SDS011;37062;52.546;13.230;2023-02-02T14:19:52;4.68;;;1.30;;
51034;SDS011;37062;52.546;13.230;2023-02-02T14:22:38;7.53;;;1.80;;
51034;SDS011;37062;52.546;13.230;2023-02-02T14:31:28;4.45;;;1.02;;
51034;SDS011;37062;52.546;13.230;2023-02-02T14:34:27;5.32;;;1.33;;
51034;SDS011;37062;52.546;13.230;2023-02-02T14:40:05;7.13;;;1.45;;
51034;SDS011;37062;52.546;13.230;2023-02-02T14:42:55;4.85;;;1.67;;
51034;SDS011;37062;52.546;13.230;2023-02-02T14:49:04;4.15;;;1.67;;
51034;SDS011;37062;52.546;13.230;2023-02-02T14:51:45;3.05;;;1.38;;
51034;SDS011;37062;52.546;13.230;2023-02-02T14:54:20;6.18;;;1.35;;
51034;SDS011;37062;52.546;13.230;2023-02-02T14:56:52;5.15;;;1.40;;
51034;SDS011;37062;52.546;13.230;2023-02-02T14:59:25;4.50;;;1.15;;
51034;SDS011;37062;52.546;13.230;2023-02-02T15:02:04;3.78;;;0.90;;
51034;SDS011;37062;52.546;13.230;2023-02-02T15:04:42;4.50;;;1.30;;
51034;SDS011;37062;52.546;13.230;2023-02-02T15:10:07;3.17;;;1.33;;
51034;SDS011;37062;52.546;13.230;2023-02-02T15:12:37;4.25;;;1.13;;
51034;SDS011;37062;52.546;13.230;2023-02-02T15:15:11;3.80;;;1.17;;
51034;SDS011;37062;52.546;13.230;2023-02-02T15:17:46;2.13;;;0.90;;
51034;SDS011;37062;52.546;13.230;2023-02-02T15:20:27;4.43;;;1.23;;
51034;SDS011;37062;52.546;13.230;2023-02-02T15:22:59;3.60;;;1.17;;
51034;SDS011;37062;52.546;13.230;2023-02-02T15:25:32;5.75;;;1.35;;
51034;SDS011;37062;52.546;13.230;2023-02-02T15:28:07;4.75;;;1.10;;
51034;SDS011;37062;52.546;13.230;2023-02-02T15:30:41;1.52;;;0.90;;
51034;SDS011;37062;52.546;13.230;2023-02-02T15:33:27;3.38;;;0.90;;
51034;SDS011;37062;52.546;13.230;2023-02-02T15:35:58;3.28;;;0.93;;
51034;SDS011;37062;52.546;13.230;2023-02-02T15:38:31;3.55;;;1.00;;